createdAt,value
2019-05-01T00:00:23.279Z,29.10
2019-05-01T00:03:05.760Z,29.10
2019-05-01T00:05:36.239Z,29.00
2019-05-01T00:08:05.742Z,29.00
2019-05-01T00:10:34.472Z,29.10
2019-05-01T00:13:03.597Z,29.00
2019-05-01T00:15:34.086Z,29.10
2019-05-01T00:18:02.811Z,29.20
2019-05-01T00:20:31.631Z,29.10
2019-05-01T00:23:00.361Z,29.10
2019-05-01T00:25:29.104Z,29.00
2019-05-01T00:27:57.894Z,28.90
2019-05-01T00:30:29.944Z,28.70
2019-05-01T00:32:58.786Z,28.60
2019-05-01T00:35:27.530Z,28.50
2019-05-01T00:37:56.249Z,28.60
2019-05-01T00:40:24.991Z,28.40
2019-05-01T00:42:53.731Z,28.70
2019-05-01T00:45:22.467Z,28.70
2019-05-01T00:47:51.183Z,28.80
2019-05-01T00:50:19.929Z,28.80
2019-05-01T00:52:48.656Z,28.80
2019-05-01T00:55:35.021Z,28.80
2019-05-01T00:58:05.422Z,29.00
2019-05-01T01:00:42.911Z,29.10
2019-05-01T01:03:06.277Z,29.00
2019-05-01T01:05:35.008Z,29.10
2019-05-01T01:08:03.783Z,29.30
2019-05-01T01:10:32.597Z,29.30
2019-05-01T01:13:01.307Z,29.90
2019-05-01T01:15:30.029Z,29.40
2019-05-01T01:17:58.838Z,29.30
2019-05-01T01:20:27.563Z,29.40
2019-05-01T01:22:56.283Z,29.40
2019-05-01T01:25:25.019Z,29.50
2019-05-01T01:27:53.743Z,29.50
2019-05-01T01:30:22.562Z,30.20
2019-05-01T01:32:51.299Z,30.30
2019-05-01T01:35:20.426Z,30.50
2019-05-01T01:37:49.262Z,30.40
2019-05-01T01:40:17.975Z,30.90
2019-05-01T01:42:48.546Z,30.60
2019-05-01T01:45:18.914Z,30.60
2019-05-01T01:48:05.842Z,30.90
2019-05-01T01:50:35.341Z,30.90
2019-05-01T01:53:04.385Z,30.90
2019-05-01T01:55:33.425Z,31.10
2019-05-01T01:58:02.262Z,31.30
2019-05-01T02:00:32.633Z,31.40
2019-05-01T02:03:03.022Z,31.80
2019-05-01T02:05:33.422Z,32.10
2019-05-01T02:08:02.253Z,32.50
2019-05-01T02:10:42.345Z,32.60
2019-05-01T02:13:01.533Z,33.30
2019-05-01T02:15:30.326Z,33.20
2019-05-01T02:17:59.051Z,33.20
2019-05-01T02:20:27.792Z,33.70
2019-05-01T02:22:56.513Z,33.90
2019-05-01T02:25:25.433Z,34.00
2019-05-01T02:28:12.665Z,34.30
2019-05-01T02:30:43.245Z,34.40
2019-05-01T02:33:12.982Z,34.50
2019-05-01T02:35:42.247Z,34.60
2019-05-01T02:38:12.099Z,35.20
2019-05-01T02:40:46.370Z,34.30
2019-05-01T02:43:18.393Z,34.30
2019-05-01T02:45:50.065Z,34.30
2019-05-01T02:48:21.729Z,34.30
2019-05-01T02:50:53.384Z,34.10
2019-05-01T02:53:24.980Z,34.20
2019-05-01T02:56:15.604Z,34.10
2019-05-01T02:58:47.383Z,34.40
2019-05-01T03:01:16.184Z,34.30
2019-05-01T03:03:45.103Z,34.20
2019-05-01T03:06:14.362Z,34.10
2019-05-01T03:08:44.079Z,34.20
2019-05-01T03:11:11.972Z,34.10
2019-05-01T03:13:43.439Z,34.50
2019-05-01T03:16:12.389Z,34.00
2019-05-01T03:18:42.749Z,34.00
2019-05-01T03:21:28.033Z,34.10
2019-05-01T03:24:01.654Z,34.00
2019-05-01T03:26:30.915Z,33.70
2019-05-01T03:28:59.625Z,33.80
2019-05-01T03:31:28.379Z,33.70
2019-05-01T03:33:57.929Z,33.60
2019-05-01T03:36:26.859Z,33.30
2019-05-01T03:38:55.621Z,33.20
2019-05-01T03:41:24.350Z,33.30
2019-05-01T03:43:53.299Z,33.50
2019-05-01T03:46:22.126Z,33.20
2019-05-01T03:48:50.967Z,33.30
2019-05-01T03:51:19.704Z,33.30
2019-05-01T03:53:48.428Z,33.30
2019-05-01T03:56:17.171Z,33.30
2019-05-01T03:58:45.975Z,32.90
2019-05-01T04:01:28.956Z,32.40
2019-05-01T04:03:59.638Z,32.50
2019-05-01T04:06:28.482Z,31.30
2019-05-01T04:08:58.220Z,31.20
2019-05-01T04:11:26.190Z,31.50
2019-05-01T04:13:55.118Z,32.50
2019-05-01T04:16:23.928Z,31.90
2019-05-01T04:18:52.944Z,32.00
2019-05-01T04:21:23.914Z,31.50
2019-05-01T04:23:53.119Z,30.60
2019-05-01T04:26:22.185Z,30.20
2019-05-01T04:29:01.795Z,30.00
2019-05-01T04:31:40.918Z,30.10
2019-05-01T04:34:28.058Z,29.50
2019-05-01T04:37:01.970Z,29.40
2019-05-01T04:39:30.969Z,29.10
2019-05-01T04:41:59.712Z,29.00
2019-05-01T04:44:28.521Z,29.00
2019-05-01T04:46:58.369Z,28.70
2019-05-01T04:49:27.511Z,28.70
2019-05-01T04:51:57.187Z,29.20
2019-05-01T04:54:25.965Z,28.50
2019-05-01T04:56:54.923Z,28.40
2019-05-01T04:59:23.681Z,28.20
2019-05-01T05:01:57.120Z,28.20
2019-05-01T05:04:25.339Z,28.00
2019-05-01T05:06:54.767Z,27.80
2019-05-01T05:09:38.371Z,27.70
2019-05-01T05:12:12.143Z,27.70
2019-05-01T05:14:45.260Z,27.80
2019-05-01T05:17:18.508Z,27.90
2019-05-01T05:19:47.638Z,27.90
2019-05-01T05:22:16.903Z,27.90
2019-05-01T05:24:45.883Z,27.90
2019-05-01T05:27:16.088Z,28.00
2019-05-01T05:29:45.426Z,28.00
2019-05-01T05:32:15.670Z,28.20
2019-05-01T05:34:47.423Z,28.40
2019-05-01T05:37:19.593Z,28.10
2019-05-01T05:39:49.030Z,27.70
2019-05-01T05:42:18.267Z,27.70
2019-05-01T05:44:48.462Z,27.60
2019-05-01T05:47:17.709Z,27.50
2019-05-01T05:49:46.857Z,27.50
2019-05-01T05:52:21.234Z,27.30
2019-05-01T05:55:10.203Z,27.40
2019-05-01T05:57:57.587Z,27.30
2019-05-01T06:00:31.155Z,27.20
2019-05-01T06:03:30.730Z,26.90
2019-05-01T06:05:56.276Z,27.40
2019-05-01T06:08:28.879Z,26.70
2019-05-01T06:11:18.732Z,26.90
2019-05-01T06:13:57.183Z,27.20
2019-05-01T06:16:29.178Z,27.80
2019-05-01T06:19:16.298Z,27.40
2019-05-01T06:21:47.548Z,27.80
2019-05-01T06:24:24.822Z,28.20
2019-05-01T06:26:53.647Z,28.80
2019-05-01T06:29:22.386Z,28.40
2019-05-01T06:31:54.036Z,28.30
2019-05-01T06:34:23.810Z,28.30
2019-05-01T06:36:51.947Z,28.90
2019-05-01T06:39:20.749Z,28.50
2019-05-01T06:41:49.787Z,28.60
2019-05-01T06:44:20.158Z,28.40
2019-05-01T06:46:58.231Z,28.80
2019-05-01T06:49:38.994Z,28.20
2019-05-01T06:52:09.195Z,28.20
2019-05-01T06:54:38.356Z,28.80
2019-05-01T06:57:07.904Z,29.00
2019-05-01T06:59:39.289Z,29.10
2019-05-01T07:02:11.210Z,29.30
2019-05-01T07:04:42.173Z,29.40
2019-05-01T07:07:24.791Z,29.80
2019-05-01T07:09:44.189Z,30.10
2019-05-01T07:12:15.526Z,30.00
2019-05-01T07:14:47.104Z,30.30
2019-05-01T07:17:15.249Z,30.80
2019-05-01T07:19:58.014Z,30.50
2019-05-01T07:22:26.895Z,30.30
2019-05-01T07:24:58.962Z,29.90
2019-05-01T07:27:26.466Z,29.50
2019-05-01T07:29:57.031Z,29.50
2019-05-01T07:32:25.863Z,28.90
2019-05-01T07:34:56.802Z,29.10
2019-05-01T07:37:25.833Z,29.40
2019-05-01T07:39:55.783Z,28.30
2019-05-01T07:42:28.963Z,28.40
2019-05-01T07:45:03.885Z,28.20
2019-05-01T07:47:40.334Z,28.30
2019-05-01T07:50:11.347Z,27.70
2019-05-01T07:52:40.951Z,27.50
2019-05-01T07:55:13.178Z,27.30
2019-05-01T07:57:41.298Z,27.40
2019-05-01T08:00:12.836Z,27.30
2019-05-01T08:02:41.562Z,26.20
2019-05-01T08:05:11.731Z,26.70
2019-05-01T08:07:40.670Z,27.40
2019-05-01T08:10:09.794Z,26.70
2019-05-01T08:12:38.522Z,26.70
2019-05-01T08:15:07.319Z,26.70
2019-05-01T08:17:37.676Z,26.30
2019-05-01T08:20:14.442Z,26.30
2019-05-01T08:22:40.135Z,25.80
2019-05-01T08:25:09.031Z,24.90
2019-05-01T08:27:56.229Z,24.50
2019-05-01T08:30:26.737Z,23.80
2019-05-01T08:33:14.568Z,23.50
2019-05-01T08:35:44.339Z,23.30
2019-05-01T08:38:13.087Z,22.90
2019-05-01T08:40:41.828Z,22.70
2019-05-01T08:43:13.650Z,22.10
2019-05-01T08:45:59.225Z,21.90
2019-05-01T08:48:30.868Z,20.90
2019-05-01T08:51:00.425Z,20.90
2019-05-01T08:53:29.351Z,20.60
2019-05-01T08:55:58.115Z,20.00
2019-05-01T08:58:26.956Z,19.70
2019-05-01T09:00:55.765Z,19.10
2019-05-01T09:03:24.562Z,19.00
2019-05-01T09:05:57.516Z,19.00
2019-05-01T09:08:26.974Z,18.40
2019-05-01T09:10:54.759Z,18.50
2019-05-01T09:13:24.899Z,18.30
2019-05-01T09:15:53.857Z,18.00
2019-05-01T09:18:22.593Z,17.60
2019-05-01T09:20:52.988Z,17.10
2019-05-01T09:23:21.814Z,17.20
2019-05-01T09:26:14.818Z,17.20
2019-05-01T09:28:41.001Z,16.80
2019-05-01T09:31:11.429Z,16.70
2019-05-01T09:33:40.198Z,16.90
2019-05-01T09:36:09.086Z,16.20
2019-05-01T09:38:38.000Z,16.10
2019-05-01T09:41:06.730Z,15.90
2019-05-01T09:43:35.873Z,15.60
2019-05-01T09:46:05.722Z,15.60
2019-05-01T09:48:34.522Z,15.60
2019-05-01T09:51:07.653Z,15.60
2019-05-01T09:53:44.194Z,15.50
2019-05-01T09:56:14.555Z,15.60
2019-05-01T09:58:43.285Z,15.30
2019-05-01T10:01:12.300Z,15.50
2019-05-01T10:03:41.027Z,15.10
2019-05-01T10:06:12.769Z,15.00
2019-05-01T10:08:41.867Z,15.00
2019-05-01T10:11:10.904Z,15.10
2019-05-01T10:13:39.646Z,15.00
2019-05-01T10:16:08.451Z,15.30
2019-05-01T10:18:37.217Z,15.40
2019-05-01T10:21:06.017Z,15.30
2019-05-01T10:23:34.750Z,15.10
2019-05-01T10:26:05.130Z,15.10
2019-05-01T10:28:50.171Z,15.20
2019-05-01T10:31:36.013Z,14.70
2019-05-01T10:34:15.318Z,15.40
2019-05-01T10:36:49.741Z,14.30
2019-05-01T10:39:19.705Z,14.00
2019-05-01T10:41:48.180Z,13.50
2019-05-01T10:44:16.959Z,13.50
2019-05-01T10:46:45.685Z,13.30
2019-05-01T10:49:14.503Z,13.50
2019-05-01T10:51:43.998Z,13.70
2019-05-01T10:54:12.735Z,13.70
2019-05-01T10:56:41.491Z,13.40
2019-05-01T10:59:10.284Z,13.40
2019-05-01T11:01:52.137Z,13.00
2019-05-01T11:04:20.823Z,13.80
2019-05-01T11:06:49.622Z,12.90
2019-05-01T11:09:18.546Z,12.70
2019-05-01T11:11:47.471Z,12.40
2019-05-01T11:14:16.197Z,12.70
2019-05-01T11:16:44.998Z,12.10
2019-05-01T11:19:13.778Z,12.50
2019-05-01T11:21:42.565Z,12.10
2019-05-01T11:24:11.322Z,12.30
2019-05-01T11:26:40.006Z,12.30
2019-05-01T11:29:08.833Z,12.00
2019-05-01T11:31:47.917Z,12.00
2019-05-01T11:34:34.528Z,11.70
2019-05-01T11:37:04.927Z,11.70
2019-05-01T11:39:42.134Z,11.00
2019-05-01T11:42:15.216Z,10.80
2019-05-01T11:44:43.930Z,10.60
2019-05-01T11:47:12.666Z,9.90
2019-05-01T11:49:41.401Z,10.10
2019-05-01T11:52:10.154Z,10.00
2019-05-01T11:54:38.889Z,9.60
2019-05-01T11:57:07.731Z,10.30
2019-05-01T11:59:35.683Z,10.30
2019-05-01T12:02:04.834Z,9.70
2019-05-01T12:04:33.576Z,9.70
2019-05-01T12:07:02.318Z,9.50
2019-05-01T12:09:30.214Z,9.20
2019-05-01T12:12:18.877Z,8.70
2019-05-01T12:14:46.741Z,8.50
2019-05-01T12:17:17.120Z,8.20
2019-05-01T12:19:45.831Z,8.10
2019-05-01T12:22:13.713Z,7.70
2019-05-01T12:24:42.439Z,7.50
2019-05-01T12:27:10.518Z,8.60
2019-05-01T12:29:39.196Z,8.30
2019-05-01T12:32:07.062Z,8.70
2019-05-01T12:34:35.865Z,8.10
2019-05-01T12:37:22.610Z,8.30
2019-05-01T12:39:51.419Z,7.80
2019-05-01T12:42:21.794Z,7.80
2019-05-01T12:44:50.542Z,8.40
2019-05-01T12:47:20.903Z,9.10
2019-05-01T12:49:51.302Z,9.00
2019-05-01T12:52:38.115Z,8.60
2019-05-01T12:55:08.993Z,9.10
2019-05-01T12:57:37.788Z,9.10
2019-05-01T13:00:10.024Z,9.30
2019-05-01T13:02:38.781Z,8.00
2019-05-01T13:05:07.871Z,8.00
2019-05-01T13:07:36.590Z,7.60
2019-05-01T13:10:06.333Z,7.60
2019-05-01T13:12:35.126Z,8.00
2019-05-01T13:15:05.762Z,8.00
2019-05-01T13:17:34.565Z,7.60
2019-05-01T13:20:03.804Z,6.60
2019-05-01T13:22:32.527Z,7.10
2019-05-01T13:25:01.260Z,7.90
2019-05-01T13:27:31.637Z,7.80
2019-05-01T13:30:01.999Z,7.50
2019-05-01T13:32:44.342Z,6.80
2019-05-01T13:35:13.122Z,6.70
2019-05-01T13:37:41.869Z,7.00
2019-05-01T13:40:11.068Z,6.50
2019-05-01T13:42:39.761Z,7.10
2019-05-01T13:45:10.222Z,8.60
2019-05-01T13:47:39.003Z,9.10
2019-05-01T13:50:08.490Z,9.30
2019-05-01T13:52:37.312Z,9.90
2019-05-01T13:55:07.328Z,10.30
2019-05-01T13:57:36.176Z,10.90
2019-05-01T14:00:07.661Z,11.50
2019-05-01T14:02:36.453Z,11.80
2019-05-01T14:05:04.993Z,12.20
2019-05-01T14:07:33.835Z,12.60
2019-05-01T14:10:02.599Z,12.50
2019-05-01T14:12:31.422Z,11.80
2019-05-01T14:15:00.199Z,11.40
2019-05-01T14:17:28.994Z,11.20
2019-05-01T14:19:58.542Z,11.00
2019-05-01T14:22:31.614Z,10.80
2019-05-01T14:25:04.801Z,11.00
2019-05-01T14:27:33.588Z,11.70
2019-05-01T14:30:02.419Z,12.20
2019-05-01T14:32:31.146Z,12.80
2019-05-01T14:34:59.965Z,13.20
2019-05-01T14:37:30.040Z,13.10
2019-05-01T14:39:58.984Z,12.60
2019-05-01T14:42:27.783Z,12.60
2019-05-01T14:44:56.590Z,12.70
2019-05-01T14:47:25.381Z,12.40
2019-05-01T14:49:54.151Z,13.20
2019-05-01T14:52:22.900Z,12.90
2019-05-01T14:54:53.278Z,13.60
2019-05-01T14:57:22.092Z,13.40
2019-05-01T14:59:54.879Z,13.70
2019-05-01T15:02:23.615Z,13.30
2019-05-01T15:04:52.418Z,13.70
2019-05-01T15:07:21.145Z,14.10
2019-05-01T15:09:49.881Z,14.80
2019-05-01T15:12:18.620Z,15.00
2019-05-01T15:14:54.731Z,15.10
2019-05-01T15:17:25.260Z,15.50
2019-05-01T15:20:01.879Z,15.60
2019-05-01T15:22:30.594Z,15.50
2019-05-01T15:25:02.095Z,15.80
2019-05-01T15:27:30.924Z,15.60
2019-05-01T15:29:59.709Z,15.60
2019-05-01T15:32:28.440Z,15.60
2019-05-01T15:34:57.189Z,15.60
2019-05-01T15:37:25.976Z,15.60
2019-05-01T15:39:56.366Z,15.80
2019-05-01T15:42:32.531Z,15.60
2019-05-01T15:45:01.361Z,15.30
2019-05-01T15:47:30.135Z,15.40
2019-05-01T15:49:58.867Z,15.40
2019-05-01T15:52:27.622Z,15.30
2019-05-01T15:54:56.445Z,15.60
2019-05-01T15:57:28.298Z,15.60
2019-05-01T15:59:57.095Z,15.60
2019-05-01T16:02:25.929Z,15.60
2019-05-01T16:04:54.659Z,15.60
2019-05-01T16:07:23.464Z,15.60
2019-05-01T16:09:52.190Z,15.70
2019-05-01T16:12:28.381Z,15.80
2019-05-01T16:14:57.194Z,16.10
2019-05-01T16:17:26.057Z,16.10
2019-05-01T16:19:54.850Z,16.00
2019-05-01T16:22:23.609Z,16.30
2019-05-01T16:24:52.337Z,16.40
2019-05-01T16:27:21.273Z,16.40
2019-05-01T16:29:50.049Z,16.40
2019-05-01T16:32:18.841Z,16.40
2019-05-01T16:34:47.658Z,16.40
2019-05-01T16:37:16.413Z,16.40
2019-05-01T16:39:46.807Z,16.70
2019-05-01T16:42:15.738Z,16.60
2019-05-01T16:44:44.541Z,16.60
2019-05-01T16:47:14.875Z,16.70
2019-05-01T16:49:43.683Z,17.40
2019-05-01T16:52:13.192Z,16.70
2019-05-01T16:54:43.445Z,16.50
2019-05-01T16:57:14.047Z,16.20
2019-05-01T16:59:44.010Z,15.90
2019-05-01T17:02:14.472Z,16.00
2019-05-01T17:04:50.901Z,15.70
2019-05-01T17:07:23.967Z,16.10
2019-05-01T17:09:57.345Z,16.20
2019-05-01T17:12:30.903Z,16.40
2019-05-01T17:14:59.633Z,17.20
2019-05-01T17:17:28.413Z,17.70
2019-05-01T17:19:57.234Z,17.90
2019-05-01T17:22:25.991Z,18.50
2019-05-01T17:24:54.891Z,18.60
2019-05-01T17:27:23.702Z,19.10
2019-05-01T17:29:52.433Z,20.30
2019-05-01T17:32:21.130Z,22.10
2019-05-01T17:34:49.913Z,21.60
2019-05-01T17:37:18.620Z,22.70
2019-05-01T17:39:47.422Z,23.40
2019-05-01T17:42:16.216Z,24.40
2019-05-01T17:44:45.234Z,24.80
2019-05-01T17:47:17.909Z,25.00
2019-05-01T17:49:50.231Z,25.20
2019-05-01T17:52:19.321Z,25.50
2019-05-01T17:54:52.087Z,26.20
2019-05-01T17:57:23.339Z,26.70
2019-05-01T17:59:54.156Z,26.90
2019-05-01T18:02:24.564Z,27.00
2019-05-01T18:05:10.469Z,27.20
2019-05-01T18:07:42.288Z,27.30
2019-05-01T18:10:14.433Z,27.60
2019-05-01T18:12:43.242Z,27.50
2019-05-01T18:15:14.729Z,27.70
2019-05-01T18:17:47.730Z,27.50
2019-05-01T18:20:21.362Z,27.40
2019-05-01T18:23:12.541Z,27.50
2019-05-01T18:25:43.789Z,27.20
2019-05-01T18:28:15.480Z,27.20
2019-05-01T18:30:44.783Z,27.10
2019-05-01T18:33:13.644Z,27.20
2019-05-01T18:35:44.944Z,27.30
2019-05-01T18:38:14.425Z,27.10
2019-05-01T18:40:44.828Z,27.10
2019-05-01T18:43:15.145Z,27.10
2019-05-01T18:45:49.459Z,26.90
2019-05-01T18:48:19.693Z,26.90
2019-05-01T18:50:54.952Z,26.90
2019-05-01T18:53:21.190Z,27.60
2019-05-01T18:55:50.993Z,28.00
2019-05-01T18:58:22.322Z,27.90
2019-05-01T19:00:53.415Z,27.70
2019-05-01T19:03:22.594Z,27.70
2019-05-01T19:05:51.692Z,27.80
2019-05-01T19:08:21.322Z,27.90
2019-05-01T19:10:52.002Z,27.80
2019-05-01T19:13:24.882Z,28.00
2019-05-01T19:15:54.442Z,28.10
2019-05-01T19:18:24.643Z,27.80
2019-05-01T19:20:59.651Z,27.60
2019-05-01T19:23:27.777Z,27.50
2019-05-01T19:25:56.522Z,27.30
2019-05-01T19:28:25.022Z,27.50
2019-05-01T19:30:56.623Z,27.70
2019-05-01T19:33:27.386Z,27.80
2019-05-01T19:35:56.205Z,28.20
2019-05-01T19:38:29.525Z,28.00
2019-05-01T19:40:56.345Z,28.30
2019-05-01T19:43:25.202Z,27.90
2019-05-01T19:45:55.374Z,27.60
2019-05-01T19:48:24.191Z,27.40
2019-05-01T19:50:52.935Z,27.50
2019-05-01T19:53:23.478Z,27.60
2019-05-01T19:55:52.230Z,27.30
2019-05-01T19:58:21.026Z,27.10
2019-05-01T20:00:53.043Z,26.80
2019-05-01T20:03:22.202Z,26.50
2019-05-01T20:05:50.868Z,26.20
2019-05-01T20:08:19.731Z,26.20
2019-05-01T20:10:48.461Z,25.30
2019-05-01T20:13:17.232Z,24.90
2019-05-01T20:15:46.079Z,24.50
2019-05-01T20:18:14.854Z,24.40
2019-05-01T20:20:43.595Z,24.40
2019-05-01T20:23:14.374Z,24.30
2019-05-01T20:25:43.118Z,24.30
2019-05-01T20:28:11.926Z,24.40
2019-05-01T20:30:40.762Z,24.70
2019-05-01T20:33:09.494Z,24.90
2019-05-01T20:35:38.275Z,25.20
2019-05-01T20:38:06.999Z,25.30
2019-05-01T20:40:35.830Z,25.40
2019-05-01T20:43:08.674Z,25.40
2019-05-01T20:45:35.029Z,25.50
2019-05-01T20:48:03.899Z,25.30
2019-05-01T20:50:32.662Z,25.20
2019-05-01T20:53:01.375Z,25.20
2019-05-01T20:55:30.103Z,25.10
2019-05-01T20:58:15.830Z,25.10
2019-05-01T21:00:48.202Z,25.00
2019-05-01T21:03:18.296Z,24.70
2019-05-01T21:05:56.247Z,24.50
2019-05-01T21:08:29.118Z,24.60
2019-05-01T21:11:06.006Z,24.40
2019-05-01T21:13:32.166Z,24.50
2019-05-01T21:16:01.778Z,24.40
2019-05-01T21:18:31.359Z,24.80
2019-05-01T21:21:00.094Z,24.50
2019-05-01T21:23:28.842Z,24.80
2019-05-01T21:26:00.854Z,25.00
2019-05-01T21:28:29.580Z,25.10
2019-05-01T21:30:58.398Z,25.10
2019-05-01T21:33:27.189Z,24.90
2019-05-01T21:35:59.550Z,24.80
2019-05-01T21:38:26.303Z,24.80
2019-05-01T21:40:55.123Z,24.60
2019-05-01T21:43:27.933Z,24.40
2019-05-01T21:45:54.430Z,24.30
2019-05-01T21:48:23.277Z,24.30
2019-05-01T21:50:53.654Z,24.30
2019-05-01T21:53:23.888Z,24.10
2019-05-01T21:55:52.846Z,24.10
2019-05-01T21:58:28.195Z,24.10
2019-05-01T22:00:55.218Z,24.10
2019-05-01T22:03:23.282Z,24.10
2019-05-01T22:05:51.995Z,24.00
2019-05-01T22:08:20.734Z,24.20
2019-05-01T22:10:52.109Z,24.30
2019-05-01T22:13:24.050Z,24.20
2019-05-01T22:15:52.147Z,24.30
2019-05-01T22:18:28.453Z,24.50
2019-05-01T22:21:10.861Z,24.40
2019-05-01T22:23:44.178Z,24.60
2019-05-01T22:26:12.925Z,24.80
2019-05-01T22:28:45.281Z,24.90
2019-05-01T22:31:33.706Z,25.10
2019-05-01T22:34:04.089Z,25.40
2019-05-01T22:36:32.899Z,26.20
2019-05-01T22:39:02.252Z,26.10
2019-05-01T22:41:32.052Z,26.40
2019-05-01T22:44:00.853Z,26.30
2019-05-01T22:46:33.717Z,26.70
2019-05-01T22:49:00.440Z,27.30
2019-05-01T22:51:29.258Z,27.00
2019-05-01T22:53:58.864Z,26.80
2019-05-01T22:56:26.757Z,26.80
2019-05-01T22:58:55.570Z,26.80
2019-05-01T23:01:24.977Z,26.60
2019-05-01T23:03:59.462Z,26.60
2019-05-01T23:06:30.173Z,26.90
2019-05-01T23:08:58.887Z,27.10
2019-05-01T23:11:29.495Z,27.10
2019-05-01T23:13:58.306Z,27.00
2019-05-01T23:16:29.119Z,27.00
2019-05-01T23:19:18.143Z,27.00
2019-05-01T23:21:50.919Z,27.10
2019-05-01T23:24:17.322Z,27.10
2019-05-01T23:26:48.034Z,27.10
2019-05-01T23:29:16.594Z,27.80
2019-05-01T23:31:45.397Z,28.20
2019-05-01T23:34:14.193Z,28.80
2019-05-01T23:36:42.891Z,29.30
2019-05-01T23:39:13.281Z,29.40
2019-05-01T23:41:45.497Z,30.10
2019-05-01T23:44:12.478Z,31.00
2019-05-01T23:46:41.206Z,31.80
2019-05-01T23:49:09.921Z,32.30
2019-05-01T23:51:38.655Z,33.30
2019-05-01T23:54:07.413Z,33.40
2019-05-01T23:56:36.369Z,33.90
2019-05-01T23:59:05.370Z,34.30
